Time;durP1;ratioP1;P1;durP2;ratioP2;P2;SDS_P1;SDS_P2;PMS_P1;PMS_P2;Temp;Humidity;BMP_temperature;BMP_pressure;BME280_temperature;BME280_humidity;BME280_pressure;Samples;Min_cycle;Max_cycle;Signal;HPM_P1;HPM_P2
2021/12/03 00:01:56;;;;;;;22.60;8.00;;;;;;;-1.98;66.44;99162.42;2143509;83;30962;-59
2021/12/03 00:04:58;;;;;;;20.75;8.05;;;;;;;-2.00;66.48;99171.65;2234672;79;34167;-62
2021/12/03 00:08:00;;;;;;;19.17;8.93;;;;;;;-2.02;66.59;99164.67;2235096;79;30347;-60
2021/12/03 00:11:03;;;;;;;18.37;7.20;;;;;;;-2.04;66.68;99173.89;2209217;79;27636;-68
2021/12/03 00:14:05;;;;;;;16.02;6.30;;;;;;;-2.04;66.85;99184.39;2145827;82;28682;-69
2021/12/03 00:17:07;;;;;;;14.93;5.62;;;;;;;-2.00;67.05;99183.45;2168929;82;31045;-66
2021/12/03 00:20:13;;;;;;;14.85;5.47;;;;;;;-1.94;67.32;99189.48;2171189;81;33149;-60
2021/12/03 00:23:16;;;;;;;21.75;5.75;;;;;;;-1.84;67.51;99193.70;2168817;81;29356;-63
2021/12/03 00:26:17;;;;;;;13.60;5.10;;;;;;;-1.73;67.54;99194.80;2108920;83;27683;-63
2021/12/03 00:29:19;;;;;;;14.10;5.12;;;;;;;-1.62;67.66;99199.87;2146372;81;30770;-61
2021/12/03 00:32:21;;;;;;;19.90;6.47;;;;;;;-1.51;67.67;99204.94;2174226;81;31169;-61
2021/12/03 00:35:24;;;;;;;18.65;5.67;;;;;;;-1.41;67.72;99210.45;2201959;80;33614;-62
2021/12/03 00:41:53;;;;;;;22.50;5.20;;;;;;;-1.25;67.48;99230.30;2091708;85;28458;-67
2021/12/03 00:44:54;;;;;;;15.23;5.42;;;;;;;-1.17;67.46;99235.84;2080339;83;28663;-64
2021/12/03 00:47:54;;;;;;;15.18;5.47;;;;;;;-1.13;67.38;99242.77;2071127;85;30830;-68
2021/12/03 00:50:56;;;;;;;18.87;5.37;;;;;;;-1.10;67.27;99242.72;2070918;85;32840;-68
2021/12/03 00:53:58;;;;;;;11.83;4.90;;;;;;;-1.09;67.19;99245.77;2096030;84;29694;-69
2021/12/03 00:57:00;;;;;;;11.00;5.25;;;;;;;-1.10;67.12;99236.16;2093078;84;27609;-68
2021/12/03 01:00:06;;;;;;;11.50;4.85;;;;;;;-1.12;67.12;99242.73;2092471;85;30841;-71
2021/12/03 01:03:08;;;;;;;7.22;4.10;;;;;;;-1.14;67.11;99251.55;2092688;85;31029;-69
2021/12/03 01:06:10;;;;;;;15.93;4.62;;;;;;;-1.18;67.16;99254.69;2074093;85;34324;-68
2021/12/03 01:09:12;;;;;;;14.98;5.37;;;;;;;-1.23;67.20;99261.78;2095679;84;30496;-70
2021/12/03 01:12:14;;;;;;;13.10;5.28;;;;;;;-1.24;67.37;99271.88;2071352;86;27681;-71
2021/12/03 01:15:20;;;;;;;9.78;4.62;;;;;;;-1.24;67.49;99274.04;2070995;86;28971;-71
2021/12/03 01:18:22;;;;;;;11.88;3.77;;;;;;;-1.24;67.53;99271.88;2070982;86;31487;-71
2021/12/03 01:21:24;;;;;;;14.33;4.65;;;;;;;-1.24;67.62;99276.67;2071024;86;33612;-71
2021/12/03 01:24:26;;;;;;;8.83;4.83;;;;;;;-1.21;67.73;99279.70;2070001;85;29724;-73
2021/12/03 01:27:27;;;;;;;12.05;4.75;;;;;;;-1.20;67.71;99281.88;2069665;85;27763;-72
2021/12/03 01:30:32;;;;;;;12.63;4.40;;;;;;;-1.21;67.69;99290.22;2095669;84;29037;-71
2021/12/03 01:33:33;;;;;;;12.78;4.97;;;;;;;-1.25;67.68;99282.84;2095198;85;31467;-70
2021/12/03 01:36:35;;;;;;;11.28;4.17;;;;;;;-1.27;67.70;99287.69;2095528;85;34159;-72
2021/12/03 01:39:37;;;;;;;11.60;4.10;;;;;;;-1.30;67.71;99296.93;2094897;83;29671;-72
2021/12/03 01:42:42;;;;;;;11.22;4.15;;;;;;;-1.34;67.71;99296.59;2092373;85;27696;-70
2021/12/03 01:45:44;;;;;;;10.10;4.00;;;;;;;-1.37;67.83;99311.94;2093007;85;29471;-68
2021/12/03 01:48:46;;;;;;;15.60;4.55;;;;;;;-1.42;67.84;99317.27;2092543;85;31510;-62
2021/12/03 01:51:49;;;;;;;11.50;3.85;;;;;;;-1.46;67.95;99318.67;2074133;85;33943;-66
2021/12/03 01:54:50;;;;;;;9.23;4.10;;;;;;;-1.48;67.99;99327.02;2068073;86;30613;-59
2021/12/03 01:57:53;;;;;;;11.73;4.55;;;;;;;-1.51;68.06;99325.75;2068513;86;27694;-63
2021/12/03 02:01:02;;;;;;;10.25;4.53;;;;;;;-1.55;68.12;99331.05;2068423;86;28566;-60
2021/12/03 02:04:04;;;;;;;14.85;5.10;;;;;;;-1.58;68.23;99331.55;2068592;85;31029;-59
2021/12/03 02:07:07;;;;;;;14.60;4.55;;;;;;;-1.62;68.35;99339.93;2068548;86;33150;-67
2021/12/03 02:10:10;;;;;;;12.15;3.92;;;;;;;-1.64;68.36;99340.83;2067947;86;30593;-60
2021/12/03 02:13:13;;;;;;;12.65;4.42;;;;;;;-1.69;68.37;99357.55;2068916;85;28274;-58
2021/12/03 02:16:17;;;;;;;17.57;4.50;;;;;;;-1.71;68.46;99359.31;2068688;86;28648;-63
2021/12/03 02:19:19;;;;;;;17.57;4.42;;;;;;;-1.74;68.54;99365.92;2068279;86;31897;-63
2021/12/03 02:22:21;;;;;;;14.07;4.37;;;;;;;-1.76;68.66;99372.09;2068590;86;33388;-63
2021/12/03 02:25:27;;;;;;;11.88;4.40;;;;;;;-1.79;68.63;99368.19;2068368;86;30632;-66
2021/12/03 02:28:34;;;;;;;13.95;4.92;;;;;;;-1.80;68.71;99370.39;2068750;85;27763;-62
2021/12/03 02:31:36;;;;;;;10.72;3.80;;;;;;;-1.85;68.78;99380.50;2068859;85;29049;-63
2021/12/03 02:34:38;;;;;;;14.10;3.98;;;;;;;-1.87;68.88;99382.28;2068653;86;32176;-68
2021/12/03 02:37:40;;;;;;;10.18;4.87;;;;;;;-1.92;68.99;99388.06;2069675;84;33311;-64
2021/12/03 02:40:44;;;;;;;13.00;3.85;;;;;;;-1.94;69.07;99391.14;2072517;84;29822;-68
2021/12/03 02:43:46;;;;;;;11.40;4.00;;;;;;;-1.96;69.06;99393.34;2046821;87;27706;-69
2021/12/03 02:46:48;;;;;;;11.43;4.08;;;;;;;-1.98;69.12;99394.69;2053565;85;29888;-67
2021/12/03 02:49:50;;;;;;;9.80;4.75;;;;;;;-2.01;69.17;99399.55;2045182;87;32360;-61
2021/12/03 02:52:52;;;;;;;12.63;4.83;;;;;;;-2.05;69.18;99402.20;2076738;85;33591;-68
2021/12/03 02:55:54;;;;;;;13.48;4.42;;;;;;;-2.08;69.26;99400.95;2086733;85;29940;-70
2021/12/03 02:58:56;;;;;;;16.00;5.20;;;;;;;-2.11;69.32;99408.41;2082442;85;27744;-69
2021/12/03 03:02:00;;;;;;;12.40;5.08;;;;;;;-2.14;69.28;99409.75;2081612;85;29409;-67
2021/12/03 03:05:03;;;;;;;11.65;4.35;;;;;;;-2.18;69.31;99410.23;2080897;85;31042;-62
2021/12/03 03:08:05;;;;;;;14.05;4.47;;;;;;;-2.23;69.37;99419.05;2049608;85;33805;-68
2021/12/03 03:11:08;;;;;;;14.95;5.03;;;;;;;-2.25;69.41;99419.52;2053020;85;30310;-66
2021/12/03 03:14:09;;;;;;;11.80;4.40;;;;;;;-2.31;69.48;99418.69;2086767;85;27673;-68
2021/12/03 03:17:12;;;;;;;15.32;5.08;;;;;;;-2.34;69.64;99415.23;2087048;85;28639;-65
2021/12/03 03:20:15;;;;;;;12.03;4.10;;;;;;;-2.37;69.64;99425.33;2081725;85;31666;-67
2021/12/03 03:23:18;;;;;;;15.48;5.05;;;;;;;-2.40;69.77;99436.31;2078562;85;33762;-66
2021/12/03 03:26:20;;;;;;;10.78;3.87;;;;;;;-2.43;69.80;99433.72;2046225;87;30011;-65
2021/12/03 03:29:22;;;;;;;12.58;4.62;;;;;;;-2.45;69.91;99441.16;2064997;85;28313;-71
2021/12/03 03:32:24;;;;;;;12.68;4.67;;;;;;;-2.48;70.00;99445.57;2081333;85;28889;-69
2021/12/03 03:35:26;;;;;;;7.85;4.05;;;;;;;-2.50;70.03;99449.50;2081515;85;31863;-70
2021/12/03 03:38:28;;;;;;;11.88;4.42;;;;;;;-2.51;70.26;99449.53;2053802;85;33824;-70
2021/12/03 03:41:30;;;;;;;11.18;3.92;;;;;;;-2.52;70.28;99447.80;2066586;85;29703;-72
2021/12/03 03:44:32;;;;;;;12.50;4.10;;;;;;;-2.53;70.37;99461.33;2071889;85;28161;-76
2021/12/03 03:47:34;;;;;;;11.50;3.65;;;;;;;-2.55;70.41;99456.99;2086614;85;29051;-77
2021/12/03 03:50:37;;;;;;;9.83;4.03;;;;;;;-2.58;70.40;99463.15;2093281;84;31419;-73
2021/12/03 03:53:40;;;;;;;13.70;3.80;;;;;;;-2.58;70.42;99467.50;2096011;84;33783;-77
2021/12/03 03:56:44;;;;;;;19.30;4.90;;;;;;;-2.61;70.49;99465.80;2091889;84;29776;-73
2021/12/03 03:59:45;;;;;;;7.37;3.75;;;;;;;-2.63;70.59;99467.55;2088070;85;27628;-76
2021/12/03 04:02:47;;;;;;;11.63;4.12;;;;;;;-2.64;70.67;99469.75;2086463;84;29099;-72
2021/12/03 04:05:53;;;;;;;13.15;4.28;;;;;;;-2.65;70.72;99471.52;2086418;85;31404;-76
2021/12/03 04:08:55;;;;;;;16.80;3.95;;;;;;;-2.67;70.83;99458.86;2084918;85;33157;-77
2021/12/03 04:11:57;;;;;;;9.20;3.75;;;;;;;-2.68;70.79;99463.67;2086500;84;30262;-67
2021/12/03 04:14:59;;;;;;;18.85;3.92;;;;;;;-2.69;70.81;99458.42;2089498;85;27781;-68
2021/12/03 04:18:01;;;;;;;15.28;5.87;;;;;;;-2.70;70.78;99456.69;2088041;85;29928;-70
2021/12/03 04:21:03;;;;;;;11.60;4.95;;;;;;;-2.73;70.75;99460.22;2096239;84;31004;-68
2021/12/03 04:24:06;;;;;;;11.88;4.60;;;;;;;-2.73;70.80;99461.98;2095944;84;33338;-70
2021/12/03 04:27:09;;;;;;;12.98;4.15;;;;;;;-2.77;70.86;99462.00;2096048;84;30122;-72
2021/12/03 04:30:16;;;;;;;15.63;4.45;;;;;;;-2.78;70.94;99463.30;2088915;84;27742;-72
2021/12/03 04:33:18;;;;;;;11.93;4.25;;;;;;;-2.80;70.98;99476.44;2090336;84;29825;-64
2021/12/03 04:36:20;;;;;;;14.28;4.35;;;;;;;-2.83;70.99;99477.77;2091307;85;30856;-59
2021/12/03 04:39:22;;;;;;;16.62;5.20;;;;;;;-2.85;71.03;99479.98;2085908;85;33059;-67
2021/12/03 04:42:23;;;;;;;13.13;5.03;;;;;;;-2.87;71.05;99479.12;2086581;85;30105;-67
2021/12/03 04:45:28;;;;;;;12.50;4.03;;;;;;;-2.89;71.15;99480.42;2095321;84;27710;-69
2021/12/03 04:48:30;;;;;;;13.58;5.00;;;;;;;-2.90;71.22;99487.89;2095837;84;28639;-61
2021/12/03 04:51:31;;;;;;;9.73;4.67;;;;;;;-2.92;71.36;99497.52;2095963;84;31361;-69
2021/12/03 04:54:33;;;;;;;8.20;4.50;;;;;;;-2.95;71.37;99502.31;2095799;84;32886;-67
2021/12/03 04:57:35;;;;;;;9.30;4.55;;;;;;;-2.95;71.42;99508.02;2095690;85;30462;-69
2021/12/03 05:00:45;;;;;;;11.88;4.47;;;;;;;-2.96;71.45;99507.58;2095930;84;27638;-66
2021/12/03 05:03:46;;;;;;;18.40;4.87;;;;;;;-2.98;71.67;99508.03;2095898;84;30254;-69
2021/12/03 05:10:10;;;;;;;17.77;5.62;;;;;;;-3.02;71.64;99506.30;2095513;85;34237;-70
2021/12/03 05:13:16;;;;;;;11.95;4.95;;;;;;;-3.06;71.59;99507.63;2095850;84;29325;-69
2021/12/03 05:16:18;;;;;;;13.15;5.17;;;;;;;-3.09;71.64;99512.92;2095592;84;27724;-61
2021/12/03 05:19:20;;;;;;;14.73;5.60;;;;;;;-3.11;71.70;99511.16;2095163;85;29106;-65
2021/12/03 05:22:24;;;;;;;12.95;5.22;;;;;;;-3.13;71.81;99518.16;2095721;85;32183;-63
2021/12/03 05:25:27;;;;;;;17.10;5.20;;;;;;;-3.16;71.78;99516.90;2096109;84;35417;-63
2021/12/03 05:28:29;;;;;;;14.93;5.20;;;;;;;-3.19;71.90;99513.84;2092273;84;29095;-60
2021/12/03 05:31:30;;;;;;;14.68;5.70;;;;;;;-3.23;71.88;99509.52;2067391;85;27694;-60
2021/12/03 05:34:32;;;;;;;12.85;4.75;;;;;;;-3.25;71.81;99512.13;2087839;85;29094;-61
2021/12/03 05:37:34;;;;;;;13.30;5.35;;;;;;;-3.28;71.81;99520.00;2095850;84;31406;-63
2021/12/03 05:40:37;;;;;;;14.95;5.83;;;;;;;-3.30;71.96;99523.06;2089052;84;32893;-64
2021/12/03 05:43:38;;;;;;;13.05;5.45;;;;;;;-3.32;72.12;99525.27;2104857;84;30542;-59
2021/12/03 05:46:45;;;;;;;15.05;6.55;;;;;;;-3.33;72.11;99532.27;2105158;84;27745;-61
2021/12/03 05:49:46;;;;;;;25.85;7.55;;;;;;;-3.34;72.19;99542.31;2105231;84;29050;-61
2021/12/03 05:52:50;;;;;;;22.10;7.67;;;;;;;-3.37;72.18;99547.11;2105107;83;31810;-59
2021/12/03 05:55:52;;;;;;;24.55;7.42;;;;;;;-3.38;72.23;99552.37;2104898;84;32999;-65
2021/12/03 05:58:53;;;;;;;15.98;7.50;;;;;;;-3.39;72.45;99555.86;2104687;84;29157;-68
2021/12/03 06:01:55;;;;;;;16.17;7.97;;;;;;;-3.39;72.56;99561.09;2105123;84;27708;-63
2021/12/03 06:04:57;;;;;;;19.70;7.65;;;;;;;-3.38;72.62;99572.01;2104720;84;30372;-63
2021/12/03 06:08:00;;;;;;;19.40;8.28;;;;;;;-3.38;72.63;99568.08;2104734;84;31868;-59
2021/12/03 06:11:02;;;;;;;17.15;7.42;;;;;;;-3.37;72.72;99575.06;2104541;84;33428;-59
2021/12/03 06:14:06;;;;;;;21.97;9.00;;;;;;;-3.36;72.90;99575.04;2105054;84;29677;-69
2021/12/03 06:17:12;;;;;;;22.48;9.05;;;;;;;-3.34;73.10;99580.29;2105403;84;27747;-70
2021/12/03 06:20:12;;;;;;;24.98;11.70;;;;;;;-3.32;72.99;99590.33;2104952;83;30073;-66
2021/12/03 06:23:13;;;;;;;43.45;18.62;;;;;;;-3.31;72.98;99595.11;2105190;84;31392;-66
2021/12/03 06:26:15;;;;;;;29.12;14.45;;;;;;;-3.29;73.00;99599.91;2098911;84;33722;-60
2021/12/03 06:29:17;;;;;;;22.13;9.38;;;;;;;-3.28;72.89;99608.20;2104929;84;29688;-71
2021/12/03 06:32:19;;;;;;;17.02;8.58;;;;;;;-3.27;72.90;99612.56;2105315;84;27713;-69
2021/12/03 06:35:21;;;;;;;15.32;7.42;;;;;;;-3.26;73.04;99615.16;2104610;83;28459;-65
2021/12/03 06:38:22;;;;;;;17.85;7.45;;;;;;;-3.25;73.04;99616.91;2103783;84;31022;-65
2021/12/03 06:41:24;;;;;;;18.57;6.37;;;;;;;-3.24;73.02;99623.03;2101770;84;33289;-67
2021/12/03 06:44:26;;;;;;;20.68;7.60;;;;;;;-3.22;73.28;99623.86;2086919;85;29500;-69
2021/12/03 06:47:28;;;;;;;17.20;7.97;;;;;;;-3.18;73.31;99629.53;2094520;85;28410;-69
2021/12/03 06:50:31;;;;;;;18.42;7.80;;;;;;;-3.14;73.30;99635.66;2091067;84;29863;-64
2021/12/03 06:53:41;;;;;;;18.17;9.13;;;;;;;-3.12;73.27;99637.80;2087596;85;31395;-60
2021/12/03 06:56:51;;;;;;;22.15;9.80;;;;;;;-3.09;73.24;99643.91;2090326;83;33841;-58
2021/12/03 06:59:53;;;;;;;24.27;9.83;;;;;;;-3.06;73.40;99654.36;2093568;84;29711;-63
2021/12/03 07:02:55;;;;;;;19.10;9.20;;;;;;;-3.01;73.33;99649.54;2095648;84;27689;-68
2021/12/03 07:05:57;;;;;;;20.95;8.98;;;;;;;-2.99;73.39;99656.54;2125219;83;29422;-59
2021/12/03 07:08:58;;;;;;;22.77;8.63;;;;;;;-2.94;73.39;99664.37;2126548;83;31108;-61
2021/12/03 07:12:00;;;;;;;21.25;8.40;;;;;;;-2.90;73.36;99661.72;2105851;83;33003;-62
2021/12/03 07:15:03;;;;;;;22.07;8.98;;;;;;;-2.85;73.40;99663.45;2117432;83;29809;-65
2021/12/03 07:18:05;;;;;;;19.98;8.85;;;;;;;-2.81;73.44;99666.05;2117709;83;28278;-58
2021/12/03 07:21:07;;;;;;;17.27;7.33;;;;;;;-2.72;73.62;99669.48;2124985;83;29530;-58
2021/12/03 07:24:09;;;;;;;21.12;6.95;;;;;;;-2.57;73.72;99675.08;2109287;83;31949;-66
2021/12/03 07:27:11;;;;;;;20.48;6.17;;;;;;;-2.42;73.71;99672.81;2121065;83;34166;-62
2021/12/03 07:30:16;;;;;;;16.32;5.92;;;;;;;-2.26;73.75;99673.14;2119315;83;30488;-63
2021/12/03 07:33:18;;;;;;;14.83;5.37;;;;;;;-2.10;73.62;99675.19;2119993;84;27747;-63
2021/12/03 07:36:20;;;;;;;16.48;5.83;;;;;;;-1.93;73.63;99668.50;2122156;83;29623;-61
2021/12/03 07:39:22;;;;;;;13.53;4.58;;;;;;;-1.75;73.43;99677.09;2125412;83;31858;-62
2021/12/03 07:42:24;;;;;;;21.15;5.75;;;;;;;-1.56;73.48;99675.14;2126930;83;33355;-64
2021/12/03 07:45:25;;;;;;;14.40;4.65;;;;;;;-1.36;73.34;99674.06;2084456;85;30193;-65
2021/12/03 07:48:27;;;;;;;17.30;5.42;;;;;;;-1.19;73.04;99672.55;2085225;85;28242;-62
2021/12/03 07:51:29;;;;;;;16.48;4.20;;;;;;;-1.03;73.00;99670.16;2085264;85;29064;-68
2021/12/03 07:54:31;;;;;;;24.90;7.90;;;;;;;-0.88;72.78;99666.91;2124643;83;31076;-64
2021/12/03 07:57:33;;;;;;;22.90;9.38;;;;;;;-0.80;72.54;99664.59;2124313;83;33043;-62
2021/12/03 08:00:37;;;;;;;20.70;8.08;;;;;;;-0.72;72.43;99675.02;2124594;83;30023;-66
2021/12/03 08:03:38;;;;;;;20.20;7.05;;;;;;;-0.65;72.15;99673.16;2098877;83;27704;-66
2021/12/03 08:06:42;;;;;;;20.92;8.23;;;;;;;-0.58;71.91;99666.94;2120182;83;29101;-64
2021/12/03 08:09:44;;;;;;;15.43;6.12;;;;;;;-0.51;71.93;99663.34;2121494;83;31088;-68
2021/12/03 08:12:47;;;;;;;16.17;5.83;;;;;;;-0.42;71.71;99677.24;2124184;83;34170;-66
2021/12/03 08:15:49;;;;;;;22.02;6.35;;;;;;;-0.34;71.45;99669.66;2153886;82;29463;-69
2021/12/03 08:18:51;;;;;;;19.07;6.55;;;;;;;-0.24;71.32;99669.50;2155445;82;28223;-68
2021/12/03 08:21:52;;;;;;;15.28;6.83;;;;;;;-0.16;71.13;99678.16;2134984;82;29031;-70
2021/12/03 08:24:54;;;;;;;13.43;4.85;;;;;;;-0.07;71.02;99679.31;2121287;83;32326;-70
2021/12/03 08:27:58;;;;;;;16.23;4.95;;;;;;;0.02;70.85;99680.94;2117541;83;33013;-72
2021/12/03 08:31:00;;;;;;;12.23;4.47;;;;;;;0.13;70.81;99680.76;2117429;83;29747;-68
2021/12/03 08:34:02;;;;;;;12.13;4.90;;;;;;;0.24;70.50;99680.15;2118732;82;27731;-66
2021/12/03 08:37:07;;;;;;;20.27;5.58;;;;;;;0.35;70.24;99679.94;2120992;82;29406;-72
2021/12/03 08:40:20;;;;;;;16.17;4.87;;;;;;;0.47;70.12;99672.73;2124577;83;31078;-61
2021/12/03 08:43:23;;;;;;;12.93;5.20;;;;;;;0.56;69.66;99680.02;2111266;83;36927;-66
2021/12/03 08:46:33;;;;;;;14.45;4.85;;;;;;;0.66;69.62;99675.44;2108106;84;29825;-69
2021/12/03 08:55:49;;;;;;;12.37;4.87;;;;;;;0.97;68.71;99684.06;2107653;84;33220;-61
2021/12/03 08:58:52;;;;;;;10.58;3.90;;;;;;;1.10;68.60;99686.44;2108308;84;34133;-59
2021/12/03 09:01:54;;;;;;;10.48;4.12;;;;;;;1.19;68.04;99677.88;2133359;83;30746;-59
2021/12/03 09:04:56;;;;;;;13.43;5.17;;;;;;;1.31;67.73;99682.03;2107805;84;27639;-58
2021/12/03 09:07:58;;;;;;;13.72;4.42;;;;;;;1.44;67.67;99681.30;2108138;84;29834;-62
2021/12/03 09:11:00;;;;;;;22.20;3.87;;;;;;;1.58;67.45;99683.63;2107856;84;31380;-60
2021/12/03 09:14:11;;;;;;;13.25;3.15;;;;;;;1.72;67.00;99693.00;2104805;84;34184;-62
2021/12/03 09:27:06;;;;;;;12.98;3.42;;;;;;;2.20;65.63;99700.66;2102781;84;30886;-66
2021/12/03 09:30:12;;;;;;;7.92;3.02;;;;;;;2.31;65.49;99696.89;2085243;85;34167;-66
2021/12/03 09:33:17;;;;;;;11.60;3.25;;;;;;;2.41;65.01;99693.95;2125715;83;30697;-64
2021/12/03 09:36:18;;;;;;;5.97;2.50;;;;;;;2.52;64.88;99688.37;2125399;83;28326;-62
2021/12/03 09:39:22;;;;;;;6.87;3.22;;;;;;;2.61;63.82;99683.30;2131780;83;29954;-68
2021/12/03 09:42:23;;;;;;;5.92;2.72;;;;;;;2.70;64.13;99687.04;2131970;82;32478;-64
2021/12/03 09:45:26;;;;;;;8.83;2.50;;;;;;;2.81;63.59;99685.86;2126619;83;34072;-68
2021/12/03 09:48:40;;;;;;;8.35;4.05;;;;;;;2.89;63.67;99676.80;2127232;83;30274;-68
2021/12/03 09:55:01;;;;;;;6.08;2.33;;;;;;;3.02;62.82;99673.80;2126720;83;28724;-67
2021/12/03 09:58:23;;;;;;;5.45;2.55;;;;;;;3.06;62.29;99658.25;2126552;83;32246;-68
2021/12/03 10:01:25;;;;;;;6.65;2.58;;;;;;;3.09;62.26;99664.78;2120407;83;33985;-69
2021/12/03 10:04:35;;;;;;;12.85;4.97;;;;;;;3.12;61.91;99665.14;2137165;83;30671;-68
2021/12/03 10:14:35;;;;;;;11.25;2.85;;;;;;;3.17;61.34;99662.77;2104737;84;32367;-68
2021/12/03 10:24:32;;;;;;;9.68;2.72;;;;;;;3.24;60.66;99658.63;2066446;85;27769;-64
2021/12/03 10:27:53;;;;;;;6.15;2.77;;;;;;;3.27;60.84;99658.06;2091523;85;29812;-58
2021/12/03 10:44:08;;;;;;;8.80;3.40;;;;;;;3.43;59.67;99665.55;2095781;83;29883;-70
2021/12/03 10:47:22;;;;;;;14.07;2.98;;;;;;;3.47;59.55;99674.70;2094521;84;31425;-66
2021/12/03 10:53:36;;;;;;;10.03;2.92;;;;;;;3.55;59.01;99667.84;2061501;86;30477;-58
2021/12/03 11:07:23;;;;;;;6.80;3.08;;;;;;;3.73;58.77;99666.37;2104213;83;34431;-71
2021/12/03 11:40:08;;;;;;;8.43;3.08;;;;;;;4.03;57.01;99675.58;2041060;85;32985;-68
2021/12/03 13:17:12;;;;;;;5.25;2.75;;;;;;;3.80;52.91;99699.73;2106980;84;32349;-67
2021/12/03 13:31:03;;;;;;;11.95;3.60;;;;;;;3.69;52.28;99708.92;2073912;85;29231;-63
2021/12/03 13:59:45;;;;;;;7.30;2.95;;;;;;;3.36;51.36;99718.28;1942863;90;27708;-60
2021/12/03 14:16:36;;;;;;;29.00;14.15;;;;;;;3.06;52.19;99735.47;1948332;90;27795;-62
2021/12/03 14:23:51;;;;;;;66.37;32.90;;;;;;;2.89;53.35;99732.83;2104985;84;32384;-71
2021/12/03 14:41:18;;;;;;;20.00;9.75;;;;;;;2.40;54.63;99747.72;2104758;84;34304;-58
2021/12/03 14:44:51;;;;;;;19.67;7.95;;;;;;;2.32;54.85;99758.95;2096680;84;30517;-58
2021/12/03 14:47:57;;;;;;;29.77;12.07;;;;;;;2.24;54.94;99765.75;2077933;85;27768;-58
2021/12/03 14:51:16;;;;;;;22.65;10.68;;;;;;;2.15;55.05;99766.41;2084736;85;30817;-68
2021/12/03 14:54:34;;;;;;;20.72;11.40;;;;;;;2.05;55.11;99761.80;2053692;86;31206;-76
2021/12/03 14:57:50;;;;;;;43.45;22.50;;;;;;;1.95;55.19;99763.34;2053429;86;34361;-78
2021/12/03 15:00:56;;;;;;;37.42;17.77;;;;;;;1.87;55.20;99767.91;2053355;86;30557;-62
2021/12/03 15:07:34;;;;;;;34.58;16.52;;;;;;;1.69;55.41;99767.89;1984197;88;29346;-61
2021/12/03 15:10:56;;;;;;;42.05;19.45;;;;;;;1.60;55.50;99764.11;1983605;89;31301;-58
2021/12/03 15:17:53;;;;;;;43.92;21.12;;;;;;;1.43;55.66;99774.57;1983839;89;30571;-60
2021/12/03 15:33:03;;;;;;;42.65;19.55;;;;;;;1.02;56.01;99784.19;1984215;89;30190;-59
2021/12/03 15:36:10;;;;;;;39.15;20.23;;;;;;;0.94;56.01;99784.33;1983106;89;28283;-58
2021/12/03 15:39:21;;;;;;;35.83;17.95;;;;;;;0.87;56.13;99785.33;1983561;89;28790;-72
2021/12/03 15:52:46;;;;;;;46.95;21.97;;;;;;;0.58;56.35;99785.40;2038735;87;27708;-62
2021/12/03 15:55:48;;;;;;;37.93;17.62;;;;;;;0.53;56.40;99791.19;2064110;84;30097;-68
2021/12/03 16:08:27;;;;;;;27.32;13.30;;;;;;;0.34;56.58;99800.70;2113049;84;27774;-60
2021/12/03 16:18:25;;;;;;;34.43;14.73;;;;;;;0.32;56.29;99784.51;2114013;84;34211;-61
2021/12/03 16:47:38;;;;;;;37.05;15.15;;;;;;;-0.06;56.40;99806.59;2073697;85;32290;-60
2021/12/03 16:50:57;;;;;;;29.77;14.73;;;;;;;-0.11;56.49;99800.50;2070387;84;32958;-60
2021/12/03 16:53:36;;;;;;;43.17;19.92;;;;;;;-0.12;56.63;99803.59;2066064;85;30782;-60
2021/12/03 16:56:50;;;;;;;37.70;19.27;;;;;;;-0.12;56.71;99805.34;2068981;85;27772;-60
2021/12/03 16:59:47;;;;;;;39.92;19.92;;;;;;;-0.13;56.72;99807.12;2072868;85;28619;-58
2021/12/03 17:15:55;;;;;;;38.48;16.85;;;;;;;-0.10;57.11;99804.45;2142564;83;29190;-71
2021/12/03 17:22:53;;;;;;;76.75;32.20;;;;;;;-0.10;57.15;99794.34;2142415;83;34153;-64
2021/12/03 17:29:22;;;;;;;84.75;33.78;;;;;;;-0.10;57.38;99794.34;2120607;84;28144;-63
2021/12/03 17:51:57;;;;;;;36.33;16.35;;;;;;;-0.04;58.59;99801.71;2067693;85;32203;-74
2021/12/03 17:58:30;;;;;;;50.28;23.70;;;;;;;0.06;58.93;99804.23;2068379;86;30174;-69
2021/12/03 18:01:35;;;;;;;61.95;27.35;;;;;;;0.09;58.86;99801.53;2067804;84;27746;-66
2021/12/03 18:04:43;;;;;;;64.07;29.55;;;;;;;0.13;58.91;99797.53;2067805;85;29205;-64
2021/12/03 18:50:50;;;;;;;23.22;12.50;;;;;;;0.48;59.80;99790.41;2028188;86;27822;-70
2021/12/03 18:53:57;;;;;;;42.38;18.25;;;;;;;0.52;59.75;99784.17;2040028;86;29980;-69
2021/12/03 18:56:54;;;;;;;67.15;26.90;;;;;;;0.54;59.78;99783.70;2030473;86;32323;-59
2021/12/03 19:00:01;;;;;;;100.40;44.93;;;;;;;0.56;59.77;99774.02;2049139;86;33013;-60
2021/12/03 19:03:11;;;;;;;42.27;21.02;;;;;;;0.56;59.81;99770.94;2082510;85;30249;-57
2021/12/03 19:06:19;;;;;;;38.35;19.62;;;;;;;0.58;59.82;99774.39;2081479;85;27755;-63
2021/12/03 19:12:27;;;;;;;29.35;17.73;;;;;;;0.61;59.80;99774.81;2068756;86;31084;-62
2021/12/03 19:15:25;;;;;;;27.32;14.55;;;;;;;0.65;59.96;99779.57;2088759;85;34223;-67
2021/12/03 19:18:28;;;;;;;22.22;14.10;;;;;;;0.69;59.93;99779.95;2149287;82;29333;-61
2021/12/03 19:21:39;;;;;;;19.10;11.33;;;;;;;0.71;59.93;99789.55;2149357;82;27637;-61
2021/12/03 19:24:39;;;;;;;24.92;14.95;;;;;;;0.73;60.00;99782.96;2148296;82;29975;-60
2021/12/03 19:27:41;;;;;;;21.15;12.60;;;;;;;0.78;59.96;99790.78;2149087;82;32234;-59
2021/12/03 19:30:43;;;;;;;25.97;14.65;;;;;;;0.80;59.99;99794.27;2148998;82;33830;-58
2021/12/03 19:33:44;;;;;;;51.15;23.00;;;;;;;0.83;60.05;99792.44;2149015;82;30676;-57
2021/12/03 19:36:46;;;;;;;48.78;19.90;;;;;;;0.86;60.06;99793.70;2149094;82;27715;-58
2021/12/03 19:39:49;;;;;;;27.77;15.00;;;;;;;0.86;59.99;99776.56;2118149;82;30054;-57
2021/12/03 19:42:57;;;;;;;29.90;13.75;;;;;;;0.88;60.09;99772.13;2149210;82;30476;-57
2021/12/03 19:46:00;;;;;;;51.53;21.12;;;;;;;0.90;60.14;99766.81;2143216;82;32967;-61
2021/12/03 19:49:08;;;;;;;29.18;17.40;;;;;;;0.87;60.17;99761.16;2132013;83;29732;-62
2021/12/03 19:52:10;;;;;;;23.70;11.95;;;;;;;0.94;60.24;99768.51;2074027;85;27604;-62
2021/12/03 19:55:11;;;;;;;47.53;20.77;;;;;;;0.94;60.19;99763.23;2111147;84;29542;-61
2021/12/03 19:58:14;;;;;;;61.23;26.23;;;;;;;0.93;60.19;99759.28;2111821;83;31029;-62
2021/12/03 20:01:16;;;;;;;77.78;35.88;;;;;;;0.88;60.12;99753.67;2111268;84;33019;-66
2021/12/03 20:04:20;;;;;;;46.05;22.67;;;;;;;0.83;60.14;99754.20;2108789;84;27668;-69
2021/12/03 20:07:22;;;;;;;60.03;28.17;;;;;;;0.77;60.22;99747.70;2112481;82;27676;-70
2021/12/03 20:10:27;;;;;;;103.00;54.42;;;;;;;0.71;60.25;99742.56;2116282;82;29015;-70
2021/12/03 20:13:28;;;;;;;43.65;25.80;;;;;;;0.66;60.26;99747.93;2137620;82;31408;-74
2021/12/03 20:16:39;;;;;;;52.00;27.90;;;;;;;0.60;60.31;99737.02;2094042;84;33955;-63
2021/12/03 20:19:36;;;;;;;28.20;16.75;;;;;;;0.55;60.40;99736.26;2130286;83;29521;-65
2021/12/03 20:32:36;;;;;;;35.85;16.67;;;;;;;0.40;60.67;99720.25;2111617;84;32959;-58
2021/12/03 20:38:55;;;;;;;31.27;17.10;;;;;;;0.35;60.74;99698.38;2108860;84;27651;-59
2021/12/03 20:42:08;;;;;;;41.05;23.22;;;;;;;0.33;60.79;99697.99;2131313;83;29528;-58
2021/12/03 20:48:46;;;;;;;33.98;17.27;;;;;;;0.25;60.90;99685.81;2081592;84;34005;-55
2021/12/03 20:58:56;;;;;;;43.50;28.65;;;;;;;0.18;61.02;99685.94;2080212;85;29343;-60
2021/12/03 21:11:09;;;;;;;70.03;34.70;;;;;;;0.07;61.28;99673.84;2080765;84;27790;-57
2021/12/03 21:14:15;;;;;;;66.22;28.62;;;;;;;0.06;61.35;99668.61;2079052;85;29409;-56
2021/12/03 21:17:26;;;;;;;57.35;28.83;;;;;;;0.06;61.43;99668.61;2066935;86;32407;-57
2021/12/03 21:23:31;;;;;;;68.78;31.12;;;;;;;0.08;61.70;99664.19;2068113;86;29986;-57
2021/12/03 21:26:32;;;;;;;61.37;31.65;;;;;;;0.10;61.66;99659.30;2067585;86;27611;-57
2021/12/03 21:39:37;;;;;;;30.02;16.10;;;;;;;0.11;61.78;99632.51;2067934;85;30584;-56
2021/12/03 21:42:25;;;;;;;97.47;55.98;;;;;;;0.13;61.90;99635.98;2068487;85;27705;-58
2021/12/03 21:45:28;;;;;;;38.40;20.95;;;;;;;0.15;62.02;99632.88;2074675;85;28772;-58
2021/12/03 21:48:30;;;;;;;33.48;16.52;;;;;;;0.18;62.32;99626.25;2074274;85;32282;-55
2021/12/03 21:51:33;;;;;;;27.70;15.05;;;;;;;0.22;62.17;99628.37;2073919;85;33105;-57
2021/12/03 21:54:34;;;;;;;30.70;19.57;;;;;;;0.26;62.05;99628.28;2074220;85;29730;-56
2021/12/03 21:57:37;;;;;;;35.68;18.67;;;;;;;0.29;62.07;99628.69;2074665;85;27725;-53
2021/12/03 22:00:39;;;;;;;54.18;25.37;;;;;;;0.30;61.99;99619.43;2074500;85;29867;-56
2021/12/03 22:03:44;;;;;;;45.58;22.35;;;;;;;0.32;61.99;99628.64;2048059;85;32084;-56